Pioche, Nevada Weather observations

Data are for observation ending at time listed.
 Day   Time    Ave.   Ave.  Ave.  Vector   Max.   Stn.    Total    Solar   Ave.  
  of    of     Air    Rel.  Wind   Wind    Wind   Baro.  Precip.   Rad.    Soil  
Year   Day     Temp.  Hum.  Speed  Dir.    Gust   Pres.                    Temp. 
2014   (PST)    F      %     mph   deg.    mph     mb.     in.     W/m2     F   
------------------------------------------------------------------------------
 352    2:40   32.2    92    1.1   145      2.1   819.1    0.00       0    38.0
 352    2:50   32.2    92    1.3   130      2.7   819.1    0.00       0    38.0
 352    3:00   32.1    92    1.8   152      2.7   819.2    0.00       0    38.0
 352    3:10   32.0    92    1.7   144      3.0   819.2    0.00       0    38.0
 352    3:20   32.1    92    0.9   114      1.5   819.3    0.00       0    38.0
 352    3:30   31.9    92    0.3   190      1.2   819.3    0.00       0    38.0
 352    3:40   31.6    92    0.8   174      1.6   819.3    0.00       0    38.0
 352    3:50   31.7    92    0.3   171      0.8   819.2    0.00       0    38.0
 352    4:00   31.8    92    0.6   304      2.5   819.2    0.00       0    38.0
 352    4:10   31.7    92    0.9   288      1.5   819.3    0.00       0    38.0
 352    4:20   31.7    92    1.0   300      1.8   819.3    0.00       0    38.0
 352    4:30   31.6    92    1.0   289      2.3   819.3    0.00       0    37.9
 352    4:40   31.6    92    1.5   278      2.9   819.4    0.00       0    37.9
 352    4:50   31.5    92    1.3   270      2.6   819.4    0.00       0    37.9
 352    5:00   31.6    92    2.6   280      3.9   819.6    0.00       0    37.9
 352    5:10   31.6    92    3.7   285      7.1   819.7    0.00       0    37.9
 352    5:20   31.6    92    3.2   289      5.8   819.8    0.00       0    37.9
 352    5:30   31.6    92    2.5   301      4.0   819.8    0.00       0    37.9
 352    5:40   31.7    92    1.7   288      2.9   819.8    0.00       0    37.9
 352    5:50   31.7    92    1.5   282      2.6   819.9    0.00       0    37.8
 352    6:00   31.8    92    0.8   269      2.1   820.0    0.00       0    37.9
 352    6:10   31.8    92    1.0   291      2.0   820.1    0.00       0    37.8
 352    6:20   31.8    92    0.9   279      1.9   820.1    0.00       0    37.8
 352    6:30   31.7    92    1.2   230      2.4   820.2    0.00       0    37.8
 352    6:40   31.8    92    1.1   246      3.0   820.3    0.00       0    37.8
 352    6:50   31.8    92    1.7   288      3.2   820.4    0.00       4    37.8
 352    7:00   31.7    92    1.8   268      3.9   820.5    0.00       4    37.8
 352    7:10   31.7    92    2.4   270      3.8   820.7    0.00       6    37.8
 352    7:20   31.9    92    1.9   221      3.2   820.8    0.00       9    37.8
 352    7:30   31.9    92    1.8   251      3.4   820.9    0.00      17    37.8
 352    7:40   32.1    92    1.4   219      2.7   820.9    0.00      29    37.8
 352    7:50   32.3    91    2.1   215      4.0   821.0    0.00      47    37.7
 352    8:00   32.8    91    1.0   213      2.1   821.0    0.00      59    37.7
 352    8:10   33.2    89    1.3   216      2.4   821.1    0.00      63    37.8
 352    8:20   33.5    88    0.3   226      1.9   821.2    0.00      57    37.8
 352    8:30   33.8    86    0.5   150      1.8   821.3    0.00      67    37.7
 352    8:40   34.1    84    0.3    66      1.2   821.4    0.00      83    37.7
 352    8:50   34.4    83    0.4    60      1.2   821.6    0.00      80    37.7
 352    9:00   34.6    85    0.2   325      1.5   821.7    0.00      89    37.8
 352    9:10   34.4    86    1.2   328      3.5   821.8    0.00     121    37.7
 352    9:20   34.3    87    1.1   317      2.5   821.9    0.00     141    37.8
 352    9:30   35.1    86    0.3   145      1.2   821.9    0.00     170    37.8
 352    9:40   35.9    80    0.5   157      2.6   822.0    0.00     181    37.8
 352    9:50   36.6    80    0.9    76      3.1   822.1    0.00     204    37.8
 352   10:00   36.0    81    1.1    76      2.9   822.1    0.00     182    37.8
 352   10:10   35.9    80    1.2    73      3.7   822.1    0.00     157    37.9
 352   10:20   35.7    77    1.8     7      3.9   822.1    0.00     151    37.9
 352   10:30   35.8    75    0.9   336      4.7   822.1    0.00     148    37.9
 352   10:40   36.3    73    0.7   356      2.4   822.0    0.00     164    37.9
 352   10:50   36.3    73    1.8   328      5.5   821.9    0.00     176    38.0
 352   11:00   36.5    72    0.8    27      3.7   821.7    0.00     259    38.0
 352   11:10   36.9    70    1.2    99      2.7   821.7    0.00     299    38.1
 352   11:20   37.8    69    1.1   179      3.7   821.6    0.00     383    38.1
 352   11:30   37.1    70    2.8    87      6.0   821.5    0.00     327    38.1
 352   11:40   37.5    71    1.7    22      3.8   821.5    0.00     527    38.1
 352   11:50   38.7    69    1.9   336      4.9   821.3    0.00     602    38.2
 352   12:00   38.5    67    2.1   110      4.9   821.2    0.00     576    38.3
 352   12:10   38.5    67    2.5   125      4.7   821.1    0.00     482    38.3
 352   12:20   37.8    69    2.2    95      4.8   821.1    0.00     253    38.4
 352   12:30   38.2    68    2.0    99      5.1   820.9    0.00     228    38.4
 352   12:40   38.4    68    2.3    81      6.0   820.8    0.00     298    38.5
 352   12:50   38.9    68    2.8    85      5.4   820.7    0.00     359    38.6
 352   13:00   40.5    66    4.0   113      9.2   820.7    0.00     718    38.6
 352   13:10   40.7    65    4.8   140      9.7   820.7    0.00     588    38.7
 352   13:20   40.7    65    5.2   135      8.8   820.7    0.00     512    38.8
 352   13:30   40.0    67    3.4   217      6.4   820.7    0.00     276    38.8
 352   13:40   38.9    73    5.7   300      9.8   820.7    0.00     561    38.9
 352   13:50   38.4    75    2.9   324      6.6   820.7    0.00     385    39.0
 352   14:00   39.3    72    2.8   314      6.0   820.7    0.00     389    39.1
 352   14:10   40.0    72    3.6   310      6.3   820.7    0.00     422    39.2
 352   14:20   40.7    69    2.7   306      5.3   820.8    0.00     455    39.3
 352   14:30   41.6    64    2.3   175      5.1   820.9    0.00     440    39.3
 352   14:40   41.2    64    5.0   145      9.4   820.8    0.00     327    39.5
 352   14:50   40.4    66    4.5   157      8.0   821.0    0.00     309    39.6
 352   15:00   40.4    66    3.6   160      6.9   821.0    0.00     168    39.6
 352   15:10   40.0    66    3.0   186      6.3   821.1    0.00     101    39.7
 352   15:20   39.4    68    2.7   185      5.0   821.2    0.00      46    39.8
 352   15:30   38.8    67    2.0   194      4.5   821.3    0.00      16    40.0
 352   15:40   38.1    71    1.3   267      2.5   821.3    0.00      14    40.1
 352   15:50   37.4    72    0.7   222      2.0   821.3    0.00      12    40.1
 352   16:00   36.0    75    1.0   204      2.1   821.3    0.00      12    40.2
 352   16:10   35.6    78    2.4   154      3.6   821.4    0.00      10    40.3
 352   16:20   35.2    79    3.8   148      5.0   821.5    0.00       7    40.3
 352   16:30   34.5    80    3.2   154      4.5   821.5    0.00       4    40.3
 352   16:40   33.8    81    1.5   162      3.4   821.6    0.00       0    40.3
 352   16:50   33.2    82    2.4   161      4.3   821.6    0.00       0    40.3
 352   17:00   33.0    82    2.2   168      4.1   821.6    0.00       0    40.4
 352   17:10   33.1    81    3.7   149      5.6   821.7    0.00       0    40.4
 352   17:20   32.6    82    3.0   155      4.7   821.7    0.00       0    40.3
 352   17:30   32.6    82    2.5   150      4.2   821.7    0.00       0    40.4
 352   17:40   32.6    81    3.1   154      4.2   821.8    0.00       0    40.4
 352   17:50   32.7    79    3.1   158      4.2   821.9    0.00       0    40.4
 352   18:00   32.6    78    3.7   154      4.5   821.9    0.00       0    40.3
 352   18:10   32.6    76    3.9   152      4.8   821.9    0.00       0    40.3
 352   18:20   32.5    76    4.4   150      5.6   822.0    0.00       0    40.3
 352   18:30   32.1    77    3.8   144      4.9   822.2    0.00       0    40.3
 352   18:40   31.9    77    3.7   147      4.5   822.3    0.00       0    40.2
 352   18:50   31.6    78    3.5   149      4.4   822.3    0.00       0    40.2
 352   19:00   31.0    80    4.3   151      4.9   822.4    0.00       0    40.1
 352   19:10   30.7    81    4.8   150      5.7   822.5    0.00       0    40.0
 352   19:20   30.6    82    4.0   152      5.0   822.5    0.00       0    40.1
 352   19:30   30.6    82    4.7   150      5.8   822.5    0.00       0    40.0
 352   19:40   30.5    82    5.0   150      5.9   822.5    0.00       0    40.0
 352   19:50   30.2    83    5.0   152      5.8   822.5    0.00       0    40.0
 352   20:00   30.0    83    3.5   161      5.6   822.6    0.00       0    39.8
 352   20:10   29.8    84    3.3   161      5.0   822.6    0.00       0    39.8
 352   20:20   29.9    84    4.4   154      5.5   822.6    0.00       0    39.8
 352   20:30   29.9    83    2.9   158      4.7   822.6    0.00       0    39.8
 352   20:40   30.0    83    4.3   152      5.5   822.6    0.00       0    39.7
 352   20:50   30.1    83    4.3   154      5.3   822.7    0.00       0    39.7
 352   21:00   29.8    84    4.6   151      5.8   822.8    0.00       0    39.6
 352   21:10   29.6    84    4.6   152      5.8   822.8    0.00       0    39.5
 352   21:20   29.6    84    4.5   153      5.6   822.8    0.00       0    39.5
 352   21:30   29.7    84    4.4   144      6.0   822.9    0.00       0    39.5
 352   21:40   30.2    84    1.3   113      2.6   823.0    0.00       0    39.4
 352   21:50   29.8    83    2.7   147      3.8   823.0    0.00       0    39.4
 352   22:00   29.3    84    2.0   128      2.9   822.9    0.00       0    39.3
 352   22:10   30.1    81    2.0   133      3.7   822.9    0.00       0    39.3
 352   22:20   29.1    82    3.0   152      5.8   822.9    0.00       0    39.3
 352   22:30   29.3    82    4.3   151      5.6   822.8    0.00       0    39.2
 352   22:40   28.9    83    3.5   154      4.9   822.9    0.00       0    39.2
 352   22:50   29.0    84    4.9   150      5.8   822.9    0.00       0    39.1
 352   23:00   29.2    84    1.2    92      3.9   822.9    0.00       0    39.1
 352   23:10   28.7    85    1.4   118      2.2   822.9    0.00       0    39.0
 352   23:20   28.8    85    1.8   139      2.5   822.9    0.00       0    39.0
 352   23:30   28.6    85    1.8   129      2.8   822.8    0.00       0    38.9
 352   23:40   28.5    84    1.2   193      2.3   822.8    0.00       0    38.9
 352   23:50   27.7    86    0.5   177      1.8   822.8    0.00       0    38.8
 353    0:00   27.6    87    0.5   194      2.3   822.8    0.00       0    38.8
 353    0:10   27.0    87    1.6   206      2.9   822.8    0.00       0    38.8
 353    0:20   27.2    89    0.6   272      1.7   822.7    0.00       0    38.7
 353    0:30   27.2    88    0.1   164      1.5   822.7    0.00       0    38.7
 353    0:40   26.7    89    0.8   204      2.0   822.7    0.00       0    38.6
 353    0:50   26.6    89    0.5   214      1.6   822.8    0.00       0    38.6
 353    1:00   26.6    90    0.7   220      1.2   822.8    0.00       0    38.5
 353    1:10   26.4    90    1.0   244      2.0   822.9    0.00       0    38.5
 353    1:20   26.3    90    0.9   173      2.8   822.9    0.00       0    38.4
 353    1:30   26.0    90    1.1   222      2.1   823.0    0.00       0    38.4
 353    1:40   26.0    91    0.9   168      2.3   823.1    0.00       0    38.3
 353    1:50   26.0    90    1.3   177      2.1   823.2    0.00       0    38.3
 353    2:00   26.3    90    1.8   152      3.3   823.1    0.00       0    38.2
 353    2:10   26.6    90    3.1   152      4.6   823.1    0.00       0    38.2
 353    2:20   26.3    89    1.5   183      4.5   823.2    0.00       0    38.2
 353    2:30   26.3    90    1.3   163      3.0   823.1    0.00       0    38.2

Return to Pioche, Nevada graphs page.


Western Regional Climate Center,wrcc@dri.edu